createdAt,value
2023-05-22T00:01:56.628Z,79.30
2023-05-22T00:04:23.732Z,79.40
2023-05-22T00:06:50.748Z,79.50
2023-05-22T00:09:18.160Z,79.70
2023-05-22T00:11:45.189Z,79.70
2023-05-22T00:14:13.592Z,79.90
2023-05-22T00:16:41.252Z,80.00
2023-05-22T00:19:19.794Z,80.00
2023-05-22T00:21:47.233Z,80.20
2023-05-22T00:24:14.140Z,80.10
2023-05-22T00:26:41.067Z,80.50
2023-05-22T00:29:07.975Z,80.60
2023-05-22T00:31:34.885Z,80.80
2023-05-22T00:34:02.102Z,80.80
2023-05-22T00:36:29.079Z,81.10
2023-05-22T00:38:56.164Z,81.20
2023-05-22T00:41:23.223Z,81.70
2023-05-22T00:43:51.233Z,81.80
2023-05-22T00:46:22.883Z,81.90
2023-05-22T00:48:50.082Z,82.00
2023-05-22T00:51:17.022Z,82.40
2023-05-22T00:53:45.696Z,82.70
2023-05-22T00:56:13.136Z,82.80
2023-05-22T00:58:40.079Z,82.80
2023-05-22T01:01:09.634Z,83.00
2023-05-22T01:03:42.422Z,83.00
2023-05-22T01:06:09.486Z,83.10
2023-05-22T01:08:36.447Z,83.00
2023-05-22T01:11:15.623Z,83.10
2023-05-22T01:13:57.166Z,83.80
2023-05-22T01:16:50.423Z,83.50
2023-05-22T01:19:51.045Z,84.10
2023-05-22T01:23:00.200Z,84.60
2023-05-22T01:26:03.907Z,84.70
2023-05-22T01:29:03.785Z,84.90
2023-05-22T01:31:32.426Z,85.00
2023-05-22T01:34:02.651Z,84.60
2023-05-22T01:36:35.044Z,84.80
2023-05-22T01:39:06.033Z,85.50
2023-05-22T01:41:36.426Z,85.50
2023-05-22T01:44:03.940Z,85.90
2023-05-22T01:46:31.556Z,85.70
2023-05-22T01:48:59.094Z,86.30
2023-05-22T01:51:53.755Z,86.20
2023-05-22T01:54:42.529Z,86.90
2023-05-22T01:57:35.927Z,86.80
2023-05-22T02:00:09.762Z,86.90
2023-05-22T02:03:01.598Z,86.40
2023-05-22T02:05:31.908Z,86.60
2023-05-22T02:08:01.902Z,86.40
2023-05-22T02:10:30.553Z,86.60
2023-05-22T02:12:57.910Z,86.60
2023-05-22T02:15:24.954Z,86.60
2023-05-22T02:17:53.335Z,86.80
2023-05-22T02:20:20.538Z,86.90
2023-05-22T02:22:48.178Z,87.10
2023-05-22T02:25:17.015Z,87.40
2023-05-22T02:27:46.887Z,87.80
2023-05-22T02:30:15.044Z,88.00
2023-05-22T02:32:43.313Z,88.30
2023-05-22T02:35:10.638Z,88.40
2023-05-22T02:37:38.128Z,88.70
2023-05-22T02:40:08.715Z,88.70
2023-05-22T02:42:35.997Z,88.90
2023-05-22T02:45:03.540Z,89.00
2023-05-22T02:47:30.596Z,89.10
2023-05-22T02:50:00.176Z,89.20
2023-05-22T02:52:28.370Z,89.00
2023-05-22T02:54:55.339Z,89.10
2023-05-22T02:57:23.342Z,89.30
2023-05-22T02:59:51.078Z,89.20
2023-05-22T03:02:19.677Z,89.30
2023-05-22T03:04:48.511Z,89.50
2023-05-22T03:07:15.514Z,89.30
2023-05-22T03:09:42.527Z,89.60
2023-05-22T03:12:10.009Z,89.60
2023-05-22T03:14:36.967Z,89.70
2023-05-22T03:17:04.072Z,89.40
2023-05-22T03:19:31.175Z,89.40
2023-05-22T03:21:58.164Z,89.30
2023-05-22T03:24:25.144Z,89.40
2023-05-22T03:26:52.174Z,89.60
2023-05-22T03:29:26.691Z,89.80
2023-05-22T03:31:54.990Z,89.80
2023-05-22T03:34:22.707Z,89.90
2023-05-22T03:36:49.932Z,89.90
2023-05-22T03:39:17.599Z,90.00
2023-05-22T03:41:56.800Z,90.00
2023-05-22T03:44:25.067Z,90.00
2023-05-22T03:46:52.338Z,90.10
2023-05-22T03:49:19.269Z,90.10
2023-05-22T03:51:46.186Z,90.00
2023-05-22T03:54:13.311Z,90.10
2023-05-22T03:56:43.132Z,90.00
2023-05-22T03:59:10.109Z,90.00
2023-05-22T04:01:39.073Z,90.00
2023-05-22T04:04:06.226Z,90.00
2023-05-22T04:06:33.306Z,90.00
2023-05-22T04:09:01.070Z,90.10
2023-05-22T04:11:30.463Z,90.10
2023-05-22T04:13:57.510Z,90.10
2023-05-22T04:16:24.557Z,90.00
2023-05-22T04:18:51.570Z,89.90
2023-05-22T04:21:19.077Z,89.80
2023-05-22T04:23:46.032Z,89.70
2023-05-22T04:26:13.186Z,89.50
2023-05-22T04:28:40.410Z,89.50
2023-05-22T04:31:07.547Z,89.50
2023-05-22T04:33:34.749Z,89.30
2023-05-22T04:36:02.745Z,89.20
2023-05-22T04:38:29.781Z,89.20
2023-05-22T04:40:57.135Z,89.20
2023-05-22T04:43:26.729Z,89.10
2023-05-22T04:45:54.882Z,89.00
2023-05-22T04:48:22.541Z,88.80
2023-05-22T04:50:50.110Z,88.80
2023-05-22T04:53:17.198Z,88.60
2023-05-22T04:55:44.501Z,88.30
2023-05-22T04:58:11.694Z,88.20
2023-05-22T05:00:38.903Z,88.00
2023-05-22T05:03:08.296Z,87.90
2023-05-22T05:05:35.450Z,87.80
2023-05-22T05:08:02.486Z,87.80
2023-05-22T05:10:29.547Z,87.80
2023-05-22T05:12:56.849Z,87.70
2023-05-22T05:15:23.944Z,87.60
2023-05-22T05:17:51.492Z,87.20
2023-05-22T05:20:18.812Z,86.90
2023-05-22T05:22:46.382Z,86.30
2023-05-22T05:25:14.831Z,86.10
2023-05-22T05:27:43.159Z,86.10
2023-05-22T05:30:10.763Z,84.60
2023-05-22T05:33:03.063Z,84.40
2023-05-22T05:35:43.084Z,84.00
2023-05-22T05:38:11.735Z,83.70
2023-05-22T05:40:41.898Z,83.60
2023-05-22T05:43:09.986Z,83.00
2023-05-22T05:45:37.367Z,83.20
2023-05-22T05:48:04.625Z,83.10
2023-05-22T05:50:33.043Z,82.40
2023-05-22T05:53:00.141Z,82.60
2023-05-22T05:55:27.155Z,81.90
2023-05-22T05:57:55.153Z,81.40
2023-05-22T06:00:30.223Z,81.50
2023-05-22T06:02:59.484Z,81.00
2023-05-22T06:05:38.727Z,80.10
2023-05-22T06:08:19.757Z,79.80
2023-05-22T06:10:47.354Z,79.80
2023-05-22T06:13:17.024Z,79.70
2023-05-22T06:15:43.964Z,78.80
2023-05-22T06:18:11.110Z,79.30
2023-05-22T06:20:39.659Z,79.50
2023-05-22T06:23:07.362Z,79.60
2023-05-22T06:25:34.509Z,79.40
2023-05-22T06:28:01.912Z,79.00
2023-05-22T06:30:39.719Z,79.10
2023-05-22T06:33:11.163Z,79.20
2023-05-22T06:35:38.099Z,78.80
2023-05-22T06:38:05.421Z,78.90
2023-05-22T06:40:32.877Z,78.30
2023-05-22T06:43:08.122Z,78.60
2023-05-22T06:45:49.879Z,77.80
2023-05-22T06:48:35.839Z,77.40
2023-05-22T06:51:12.736Z,77.30
2023-05-22T06:53:41.124Z,77.20
2023-05-22T06:56:13.582Z,77.60
2023-05-22T06:58:52.680Z,77.50
2023-05-22T07:01:23.154Z,77.00
2023-05-22T07:04:01.888Z,76.30
2023-05-22T07:06:41.817Z,76.20
2023-05-22T07:09:11.220Z,75.10
2023-05-22T07:11:38.552Z,74.60
2023-05-22T07:14:05.477Z,74.30
2023-05-22T07:16:32.387Z,72.50
2023-05-22T07:18:59.731Z,73.20
2023-05-22T07:21:26.942Z,71.90
2023-05-22T07:23:55.519Z,72.60
2023-05-22T07:26:23.166Z,69.80
2023-05-22T07:29:01.032Z,70.40
2023-05-22T07:31:28.794Z,69.30
2023-05-22T07:33:55.982Z,68.00
2023-05-22T07:36:23.058Z,68.00
2023-05-22T07:38:49.958Z,69.30
2023-05-22T07:41:17.529Z,68.50
2023-05-22T07:43:44.996Z,67.80
2023-05-22T07:46:16.297Z,67.40
2023-05-22T07:48:56.687Z,68.00
2023-05-22T07:51:23.676Z,65.50
2023-05-22T07:53:52.060Z,67.50
2023-05-22T07:56:19.014Z,66.40
2023-05-22T07:58:48.455Z,65.40
2023-05-22T08:01:18.600Z,64.00
2023-05-22T08:03:45.665Z,64.70
2023-05-22T08:06:12.966Z,64.50
2023-05-22T08:08:39.965Z,63.50
2023-05-22T08:11:07.176Z,62.80
2023-05-22T08:13:34.203Z,62.30
2023-05-22T08:16:01.478Z,60.50
2023-05-22T08:18:29.981Z,61.10
2023-05-22T08:20:57.590Z,59.50
2023-05-22T08:23:24.595Z,59.70
2023-05-22T08:25:51.526Z,59.90
2023-05-22T08:28:18.451Z,59.50
2023-05-22T08:30:45.403Z,58.70
2023-05-22T08:33:12.543Z,59.10
2023-05-22T08:35:39.596Z,58.80
2023-05-22T08:38:06.537Z,59.00
2023-05-22T08:40:42.599Z,58.30
2023-05-22T08:43:11.454Z,57.00
2023-05-22T08:45:42.371Z,57.30
2023-05-22T08:48:13.093Z,56.50
2023-05-22T08:50:43.531Z,57.30
2023-05-22T08:53:15.706Z,55.10
2023-05-22T08:55:42.840Z,53.80
2023-05-22T08:58:11.576Z,53.50
2023-05-22T09:00:38.791Z,54.60
2023-05-22T09:03:07.010Z,54.00
2023-05-22T09:05:34.169Z,53.40
2023-05-22T09:08:16.085Z,52.20
2023-05-22T09:10:46.436Z,51.20
2023-05-22T09:13:29.935Z,51.30
2023-05-22T09:16:11.444Z,51.00
2023-05-22T09:18:39.695Z,50.30
2023-05-22T09:21:21.432Z,50.30
2023-05-22T09:23:54.785Z,49.70
2023-05-22T09:26:22.360Z,49.30
2023-05-22T09:28:49.334Z,49.50
2023-05-22T09:31:16.494Z,49.90
2023-05-22T09:33:44.984Z,48.20
2023-05-22T09:36:12.150Z,46.80
2023-05-22T09:38:39.904Z,46.60
2023-05-22T09:41:06.839Z,47.10
2023-05-22T09:43:33.983Z,47.20
2023-05-22T09:46:02.484Z,46.60
2023-05-22T09:48:29.760Z,46.30
2023-05-22T09:51:00.219Z,45.90
2023-05-22T09:53:31.325Z,45.30
2023-05-22T09:56:00.403Z,45.60
2023-05-22T09:58:30.956Z,46.70
2023-05-22T10:00:59.356Z,45.80
2023-05-22T10:03:27.506Z,44.80
2023-05-22T10:05:58.545Z,44.40
2023-05-22T10:08:35.383Z,44.90
2023-05-22T10:11:03.568Z,45.20
2023-05-22T10:13:31.359Z,45.50
2023-05-22T10:15:58.894Z,43.50
2023-05-22T10:18:26.898Z,43.20
2023-05-22T10:20:54.206Z,44.10
2023-05-22T10:23:22.557Z,44.60
2023-05-22T10:25:50.533Z,43.80
2023-05-22T10:28:26.139Z,43.20
2023-05-22T10:31:11.670Z,42.30
2023-05-22T10:34:07.169Z,43.00
2023-05-22T10:37:47.499Z,42.60
2023-05-22T10:40:29.191Z,43.10
2023-05-22T10:43:06.823Z,43.30
2023-05-22T10:45:33.777Z,43.30
2023-05-22T10:48:09.576Z,44.10
2023-05-22T10:50:36.817Z,42.90
2023-05-22T10:53:26.036Z,42.60
2023-05-22T10:55:55.358Z,42.30
2023-05-22T10:58:30.618Z,42.70
2023-05-22T11:01:18.166Z,42.70
2023-05-22T11:04:06.922Z,42.30
2023-05-22T11:06:45.728Z,42.40
2023-05-22T11:09:30.085Z,42.60
2023-05-22T11:12:24.799Z,42.20
2023-05-22T11:14:57.411Z,42.70
2023-05-22T11:17:32.645Z,43.00
2023-05-22T11:20:05.595Z,43.10
2023-05-22T11:22:42.250Z,42.80
2023-05-22T11:25:13.462Z,41.90
2023-05-22T11:27:41.576Z,41.80
2023-05-22T11:30:12.600Z,42.50
2023-05-22T11:32:44.384Z,42.50
2023-05-22T11:35:17.147Z,41.60
2023-05-22T11:37:44.478Z,40.70
2023-05-22T11:40:16.261Z,40.20
2023-05-22T11:42:43.228Z,39.50
2023-05-22T11:45:11.070Z,40.30
2023-05-22T11:47:38.668Z,39.20
2023-05-22T11:50:08.959Z,39.30
2023-05-22T11:52:38.054Z,38.90
2023-05-22T11:55:06.528Z,39.10
2023-05-22T11:57:34.792Z,39.50
2023-05-22T12:00:08.308Z,39.50
2023-05-22T12:02:47.686Z,39.60
2023-05-22T12:05:16.482Z,39.10
2023-05-22T12:07:43.820Z,39.10
2023-05-22T12:10:11.118Z,37.80
2023-05-22T12:12:38.918Z,38.80
2023-05-22T12:15:07.370Z,39.50
2023-05-22T12:17:38.045Z,39.80
2023-05-22T12:20:06.264Z,40.20
2023-05-22T12:22:33.177Z,40.40
2023-05-22T12:25:00.127Z,39.70
2023-05-22T12:27:33.351Z,39.90
2023-05-22T12:30:10.578Z,39.20
2023-05-22T12:32:37.550Z,38.90
2023-05-22T12:35:04.903Z,38.70
2023-05-22T12:37:34.043Z,39.00
2023-05-22T12:40:04.158Z,37.00
2023-05-22T12:42:31.193Z,37.70
2023-05-22T12:44:59.886Z,37.50
2023-05-22T12:47:26.928Z,37.60
2023-05-22T12:49:53.892Z,38.20
2023-05-22T12:52:21.055Z,38.70
2023-05-22T12:54:47.947Z,38.50
2023-05-22T12:57:16.628Z,38.70
2023-05-22T12:59:43.631Z,39.20
2023-05-22T13:02:10.712Z,40.30
2023-05-22T13:04:37.666Z,40.30
2023-05-22T13:07:04.614Z,40.90
2023-05-22T13:09:31.486Z,41.40
2023-05-22T13:11:58.453Z,41.20
2023-05-22T13:14:25.432Z,40.30
2023-05-22T13:16:52.332Z,40.50
2023-05-22T13:19:19.279Z,40.60
2023-05-22T13:21:46.241Z,40.60
2023-05-22T13:24:13.144Z,39.60
2023-05-22T13:26:40.071Z,39.80
2023-05-22T13:29:07.004Z,38.20
2023-05-22T13:31:37.328Z,37.70
2023-05-22T13:34:04.779Z,36.80
2023-05-22T13:36:31.935Z,36.70
2023-05-22T13:38:58.970Z,37.60
2023-05-22T13:41:26.116Z,38.30
2023-05-22T13:43:53.207Z,38.60
2023-05-22T13:46:22.122Z,38.60
2023-05-22T13:48:49.328Z,38.50
2023-05-22T13:51:16.299Z,38.20
2023-05-22T13:53:43.253Z,38.00
2023-05-22T13:56:10.349Z,37.70
2023-05-22T13:58:37.280Z,37.60
2023-05-22T14:01:04.229Z,37.70
2023-05-22T14:03:31.343Z,38.20
2023-05-22T14:05:58.282Z,38.60
2023-05-22T14:08:25.440Z,38.20
2023-05-22T14:10:52.403Z,38.30
2023-05-22T14:13:19.468Z,36.20
2023-05-22T14:15:46.984Z,35.50
2023-05-22T14:18:16.260Z,34.90
2023-05-22T14:20:44.447Z,35.90
2023-05-22T14:23:12.940Z,36.20
2023-05-22T14:25:43.285Z,36.40
2023-05-22T14:28:13.933Z,36.20
2023-05-22T14:30:41.393Z,36.20
2023-05-22T14:33:08.446Z,36.10
2023-05-22T14:35:35.404Z,36.90
2023-05-22T14:38:02.464Z,37.00
2023-05-22T14:40:29.436Z,37.70
2023-05-22T14:42:56.449Z,38.00
2023-05-22T14:45:23.570Z,37.70
2023-05-22T14:47:50.696Z,36.60
2023-05-22T14:50:20.430Z,36.80
2023-05-22T14:52:49.124Z,36.80
2023-05-22T14:55:16.824Z,36.60
2023-05-22T14:57:43.802Z,36.80
2023-05-22T15:00:12.176Z,36.50
2023-05-22T15:02:39.504Z,36.60
2023-05-22T15:05:09.806Z,36.30
2023-05-22T15:07:44.095Z,36.10
2023-05-22T15:10:13.028Z,33.60
2023-05-22T15:12:40.105Z,35.00
2023-05-22T15:15:07.886Z,35.40
2023-05-22T15:17:34.871Z,35.40
2023-05-22T15:20:01.882Z,35.40
2023-05-22T15:22:28.821Z,35.50
2023-05-22T15:25:11.798Z,34.90
2023-05-22T15:27:39.772Z,35.10
2023-05-22T15:30:09.681Z,35.60
2023-05-22T15:32:37.869Z,35.40
2023-05-22T15:35:06.527Z,35.60
2023-05-22T15:37:34.039Z,35.70
2023-05-22T15:40:02.444Z,36.20
2023-05-22T15:42:30.063Z,36.40
2023-05-22T15:44:59.780Z,36.70
2023-05-22T15:47:26.786Z,36.80
2023-05-22T15:49:53.753Z,37.20
2023-05-22T15:52:23.317Z,37.30
2023-05-22T15:54:50.426Z,36.60
2023-05-22T15:57:17.610Z,37.10
2023-05-22T15:59:47.099Z,37.10
2023-05-22T16:02:14.387Z,36.20
2023-05-22T16:04:41.407Z,36.70
2023-05-22T16:07:08.317Z,36.90
2023-05-22T16:09:36.113Z,36.90
2023-05-22T16:12:03.814Z,36.00
2023-05-22T16:14:31.850Z,36.00
2023-05-22T16:16:58.924Z,35.60
2023-05-22T16:19:27.013Z,35.60
2023-05-22T16:21:53.961Z,38.00
2023-05-22T16:24:20.896Z,39.70
2023-05-22T16:26:47.807Z,41.60
2023-05-22T16:29:14.779Z,41.70
2023-05-22T16:31:41.798Z,41.80
2023-05-22T16:34:08.800Z,42.10
2023-05-22T16:36:36.052Z,42.60
2023-05-22T16:39:02.988Z,42.60
2023-05-22T16:41:29.957Z,42.90
2023-05-22T16:43:56.929Z,43.40
2023-05-22T16:46:23.861Z,43.50
2023-05-22T16:48:50.873Z,44.00
2023-05-22T16:51:17.787Z,44.10
2023-05-22T16:53:46.528Z,44.40
2023-05-22T16:56:14.507Z,44.50
2023-05-22T16:58:41.458Z,44.80
2023-05-22T17:01:08.633Z,44.80
2023-05-22T17:03:35.937Z,44.80
2023-05-22T17:06:03.212Z,44.80
2023-05-22T17:08:30.559Z,44.70
2023-05-22T17:10:57.522Z,44.40
2023-05-22T17:13:24.449Z,44.20
2023-05-22T17:15:51.755Z,43.90
2023-05-22T17:18:19.759Z,43.90
2023-05-22T17:20:51.359Z,43.80
2023-05-22T17:23:18.388Z,43.80
2023-05-22T17:25:48.466Z,43.70
2023-05-22T17:28:15.706Z,43.80
2023-05-22T17:30:44.310Z,43.70
2023-05-22T17:33:12.257Z,43.90
2023-05-22T17:35:39.655Z,44.00
2023-05-22T17:38:08.419Z,44.30
2023-05-22T17:40:44.799Z,44.80
2023-05-22T17:43:13.759Z,45.10
2023-05-22T17:45:41.748Z,45.60
2023-05-22T17:48:08.881Z,45.90
2023-05-22T17:50:36.037Z,46.20
2023-05-22T17:53:03.248Z,46.40
2023-05-22T17:55:30.231Z,46.70
2023-05-22T17:57:57.301Z,46.90
2023-05-22T18:00:24.315Z,47.10
2023-05-22T18:02:51.582Z,47.20
2023-05-22T18:05:18.661Z,47.50
2023-05-22T18:07:45.648Z,47.80
2023-05-22T18:10:12.604Z,47.70
2023-05-22T18:12:39.545Z,48.00
2023-05-22T18:15:09.453Z,48.10
2023-05-22T18:17:36.497Z,48.20
2023-05-22T18:20:06.819Z,48.50
2023-05-22T18:22:34.924Z,49.10
2023-05-22T18:25:02.425Z,49.20
2023-05-22T18:27:29.404Z,49.50
2023-05-22T18:29:56.308Z,50.10
2023-05-22T18:32:23.768Z,50.30
2023-05-22T18:34:51.941Z,50.50
2023-05-22T18:37:22.708Z,50.70
2023-05-22T18:39:49.659Z,50.90
2023-05-22T18:42:16.590Z,51.00
2023-05-22T18:44:43.552Z,51.10
2023-05-22T18:47:10.525Z,51.40
2023-05-22T18:49:37.493Z,51.40
2023-05-22T18:52:04.554Z,51.40
2023-05-22T18:54:31.512Z,51.80
2023-05-22T18:56:58.409Z,51.90
2023-05-22T18:59:25.525Z,52.00
2023-05-22T19:01:52.437Z,52.10
2023-05-22T19:04:19.436Z,52.20
2023-05-22T19:06:46.387Z,52.10
2023-05-22T19:09:13.562Z,52.20
2023-05-22T19:11:40.577Z,52.40
2023-05-22T19:14:07.574Z,52.30
2023-05-22T19:16:34.578Z,52.40
2023-05-22T19:19:01.653Z,52.50
2023-05-22T19:21:28.579Z,52.50
2023-05-22T19:23:55.494Z,52.70
2023-05-22T19:26:22.434Z,52.70
2023-05-22T19:28:49.372Z,52.70
2023-05-22T19:31:16.531Z,52.90
2023-05-22T19:33:43.814Z,53.10
2023-05-22T19:36:10.826Z,53.20
2023-05-22T19:38:37.728Z,53.30
2023-05-22T19:41:04.645Z,53.40
2023-05-22T19:43:31.792Z,53.50
2023-05-22T19:45:58.766Z,53.60
2023-05-22T19:48:26.889Z,53.70
2023-05-22T19:50:53.823Z,53.90
2023-05-22T19:53:20.737Z,54.00
2023-05-22T19:55:47.667Z,54.10
2023-05-22T19:58:14.606Z,54.20
2023-05-22T20:00:42.363Z,54.40
2023-05-22T20:03:09.696Z,54.50
2023-05-22T20:05:36.830Z,54.60
2023-05-22T20:08:03.817Z,54.70
2023-05-22T20:10:32.328Z,55.10
2023-05-22T20:13:00.320Z,55.00
2023-05-22T20:15:27.429Z,55.40
2023-05-22T20:17:54.911Z,55.60
2023-05-22T20:20:24.576Z,55.90
2023-05-22T20:22:52.763Z,56.20
2023-05-22T20:25:21.214Z,56.00
2023-05-22T20:27:48.149Z,56.60
2023-05-22T20:30:15.115Z,56.40
2023-05-22T20:32:46.538Z,56.40
2023-05-22T20:35:13.942Z,56.50
2023-05-22T20:37:41.609Z,56.50
2023-05-22T20:40:09.498Z,56.70
2023-05-22T20:42:37.744Z,56.80
2023-05-22T20:45:08.778Z,56.90
2023-05-22T20:47:36.282Z,57.30
2023-05-22T20:50:03.312Z,57.10
2023-05-22T20:52:33.677Z,57.30
2023-05-22T20:55:00.656Z,57.40
2023-05-22T20:57:27.589Z,57.90
2023-05-22T20:59:54.587Z,58.00
2023-05-22T21:02:21.521Z,58.20
2023-05-22T21:04:48.459Z,58.20
2023-05-22T21:07:15.410Z,58.50
2023-05-22T21:09:42.332Z,58.50
2023-05-22T21:12:09.314Z,58.60
2023-05-22T21:14:36.231Z,59.10
2023-05-22T21:17:03.487Z,59.40
2023-05-22T21:19:30.518Z,59.60
2023-05-22T21:21:57.537Z,59.70
2023-05-22T21:24:24.464Z,59.90
2023-05-22T21:26:51.378Z,60.30
2023-05-22T21:29:18.289Z,60.30
2023-05-22T21:31:45.401Z,60.20
2023-05-22T21:34:12.347Z,60.00
2023-05-22T21:36:39.265Z,60.00
2023-05-22T21:39:06.163Z,60.00
2023-05-22T21:41:33.104Z,60.60
2023-05-22T21:44:00.037Z,60.70
2023-05-22T21:46:26.976Z,60.80
2023-05-22T21:48:53.973Z,60.80
2023-05-22T21:51:20.894Z,61.30
2023-05-22T21:53:47.801Z,61.20
2023-05-22T21:56:14.776Z,61.30
2023-05-22T21:58:41.973Z,61.40
2023-05-22T22:01:09.994Z,61.60
2023-05-22T22:03:38.854Z,62.00
2023-05-22T22:06:06.356Z,63.30
2023-05-22T22:08:33.313Z,62.70
2023-05-22T22:11:00.235Z,63.10
2023-05-22T22:13:27.128Z,63.20
2023-05-22T22:15:54.070Z,62.80
2023-05-22T22:18:20.987Z,63.00
2023-05-22T22:20:50.166Z,63.50
2023-05-22T22:23:17.281Z,63.80
2023-05-22T22:25:44.200Z,64.10
2023-05-22T22:28:11.336Z,65.10
2023-05-22T22:30:38.446Z,64.70
2023-05-22T22:33:05.516Z,65.00
2023-05-22T22:35:32.500Z,65.30
2023-05-22T22:37:59.466Z,65.50
2023-05-22T22:40:37.781Z,65.60
2023-05-22T22:43:04.697Z,66.00
2023-05-22T22:45:31.779Z,66.10
2023-05-22T22:48:00.491Z,66.50
2023-05-22T22:50:28.080Z,66.40
2023-05-22T22:52:55.532Z,68.20
2023-05-22T22:55:22.561Z,67.90
2023-05-22T22:57:50.171Z,67.80
2023-05-22T23:00:20.514Z,68.10
2023-05-22T23:02:47.518Z,68.50
2023-05-22T23:05:16.585Z,68.30
2023-05-22T23:07:44.326Z,68.20
2023-05-22T23:10:11.260Z,68.50
2023-05-22T23:12:38.179Z,68.50
2023-05-22T23:15:06.003Z,68.40
2023-05-22T23:17:32.956Z,68.50
2023-05-22T23:19:59.896Z,68.70
2023-05-22T23:22:26.801Z,68.60
2023-05-22T23:24:53.711Z,69.10
2023-05-22T23:27:20.743Z,68.90
2023-05-22T23:29:47.670Z,69.10
2023-05-22T23:32:14.952Z,70.00
2023-05-22T23:34:42.406Z,70.50
2023-05-22T23:37:09.564Z,70.60
2023-05-22T23:39:36.539Z,70.50
2023-05-22T23:42:03.810Z,71.40
2023-05-22T23:44:31.326Z,71.10
2023-05-22T23:46:58.297Z,71.40
2023-05-22T23:49:26.413Z,71.20
2023-05-22T23:51:53.383Z,71.00
2023-05-22T23:54:20.360Z,71.10
2023-05-22T23:56:47.719Z,71.30
2023-05-22T23:59:15.283Z,71.60
